createdAt,value
2018-12-06T00:02:04.057Z,20.60
2018-12-06T00:04:32.983Z,20.10
2018-12-06T00:07:01.883Z,19.10
2018-12-06T00:09:30.777Z,20.80
2018-12-06T00:11:59.686Z,21.73
2018-12-06T00:14:28.593Z,19.80
2018-12-06T00:16:57.501Z,20.43
2018-12-06T00:19:26.408Z,22.20
2018-12-06T00:21:55.326Z,23.10
2018-12-06T00:24:24.238Z,23.93
2018-12-06T00:26:53.416Z,21.13
2018-12-06T00:29:22.321Z,23.33
2018-12-06T00:34:34.452Z,20.73
2018-12-06T00:37:03.356Z,20.33
2018-12-06T00:39:32.255Z,21.00
2018-12-06T00:42:01.166Z,20.77
2018-12-06T00:44:30.061Z,22.43
2018-12-06T00:46:58.971Z,23.00
2018-12-06T00:49:27.885Z,20.37
2018-12-06T00:51:56.789Z,21.80
2018-12-06T00:54:25.702Z,22.80
2018-12-06T00:56:54.671Z,20.30
2018-12-06T00:59:23.577Z,21.80
2018-12-06T01:01:53.414Z,19.07
2018-12-06T01:04:22.563Z,19.53
2018-12-06T01:06:51.477Z,20.50
2018-12-06T01:09:20.405Z,19.53
2018-12-06T01:11:49.314Z,21.60
2018-12-06T01:14:20.279Z,22.10
2018-12-06T01:16:49.187Z,21.83
2018-12-06T01:19:18.088Z,23.07
2018-12-06T01:21:47.005Z,21.67
2018-12-06T01:24:15.910Z,21.83
2018-12-06T01:26:44.812Z,21.70
2018-12-06T01:29:13.744Z,21.97
2018-12-06T01:31:42.677Z,20.50
2018-12-06T01:34:11.574Z,20.20
2018-12-06T01:36:40.468Z,20.33
2018-12-06T01:39:09.452Z,19.87
2018-12-06T01:41:38.403Z,19.63
2018-12-06T01:44:07.301Z,22.50
2018-12-06T01:46:36.201Z,22.07
2018-12-06T01:49:05.108Z,20.17
2018-12-06T01:51:34.004Z,21.30
2018-12-06T01:54:02.896Z,19.80
2018-12-06T01:56:31.812Z,20.23
2018-12-06T01:59:00.726Z,22.67
2018-12-06T02:01:29.646Z,21.60
2018-12-06T02:03:58.542Z,20.00
2018-12-06T02:06:27.433Z,21.20
2018-12-06T02:08:56.456Z,21.23
2018-12-06T02:11:25.361Z,21.63
2018-12-06T02:13:54.261Z,22.33
2018-12-06T02:16:23.186Z,19.27
2018-12-06T02:18:52.382Z,20.07
2018-12-06T02:21:21.287Z,18.87
2018-12-06T02:23:50.268Z,20.40
2018-12-06T02:26:19.192Z,21.07
2018-12-06T02:28:48.167Z,21.70
2018-12-06T02:31:17.121Z,22.03
2018-12-06T02:33:46.037Z,19.87
2018-12-06T02:36:14.925Z,19.87
2018-12-06T02:38:43.835Z,21.10
2018-12-06T02:41:12.864Z,18.80
2018-12-06T02:43:41.777Z,21.80
2018-12-06T02:46:10.673Z,20.77
2018-12-06T02:48:39.593Z,19.37
2018-12-06T02:51:08.509Z,16.93
2018-12-06T02:53:37.426Z,16.50
2018-12-06T02:56:06.340Z,16.30
2018-12-06T02:58:35.261Z,18.00
2018-12-06T03:01:04.396Z,17.33
2018-12-06T03:03:33.376Z,18.10
2018-12-06T03:06:02.280Z,16.20
2018-12-06T03:08:31.168Z,17.60
2018-12-06T03:11:00.060Z,16.40
2018-12-06T03:13:28.990Z,18.20
2018-12-06T03:15:57.896Z,18.53
2018-12-06T03:18:26.819Z,17.40
2018-12-06T03:20:55.722Z,16.80
2018-12-06T03:23:25.238Z,18.60
2018-12-06T03:25:54.141Z,21.97
2018-12-06T03:28:23.067Z,21.77
2018-12-06T03:30:51.978Z,19.80
2018-12-06T03:33:20.918Z,21.93
2018-12-06T03:35:49.936Z,23.63
2018-12-06T03:38:18.849Z,21.53
2018-12-06T03:40:47.758Z,20.87
2018-12-06T03:43:16.668Z,20.60
2018-12-06T03:45:45.577Z,20.50
2018-12-06T03:48:14.500Z,19.43
2018-12-06T03:50:43.423Z,19.30
2018-12-06T03:53:12.330Z,19.70
2018-12-06T03:55:41.249Z,23.37
2018-12-06T03:58:10.152Z,23.00
2018-12-06T04:00:39.097Z,23.00
2018-12-06T04:03:08.174Z,20.17
2018-12-06T04:05:37.081Z,23.90
2018-12-06T04:08:05.990Z,22.40
2018-12-06T04:10:34.878Z,22.17
2018-12-06T04:13:03.818Z,19.63
2018-12-06T04:15:32.709Z,20.77
2018-12-06T04:18:01.634Z,21.70
2018-12-06T04:20:30.570Z,22.40
2018-12-06T04:22:59.497Z,20.27
2018-12-06T04:25:28.393Z,16.90
2018-12-06T04:27:57.314Z,16.13
2018-12-06T04:30:26.223Z,16.70
2018-12-06T04:32:55.129Z,16.47
2018-12-06T04:35:24.044Z,16.53
2018-12-06T04:37:53.029Z,17.63
2018-12-06T04:40:21.937Z,18.30
2018-12-06T04:42:50.831Z,17.73
2018-12-06T04:45:19.757Z,15.63
2018-12-06T04:47:48.670Z,17.60
2018-12-06T04:50:17.586Z,15.47
2018-12-06T04:52:46.483Z,15.40
2018-12-06T04:55:15.388Z,15.83
2018-12-06T04:57:44.282Z,16.17
2018-12-06T05:00:13.220Z,16.00
2018-12-06T05:02:42.142Z,16.80
2018-12-06T05:05:11.101Z,17.30
2018-12-06T05:07:39.992Z,15.90
2018-12-06T05:10:08.924Z,16.90
2018-12-06T05:12:37.818Z,16.57
2018-12-06T05:15:06.719Z,18.63
2018-12-06T05:17:35.604Z,17.40
2018-12-06T05:20:04.562Z,18.00
2018-12-06T05:22:33.474Z,19.00
2018-12-06T05:25:02.392Z,18.70
2018-12-06T05:27:31.303Z,20.17
2018-12-06T05:30:00.244Z,20.13
2018-12-06T05:32:29.144Z,20.30
2018-12-06T05:34:58.121Z,19.27
2018-12-06T05:37:27.106Z,18.27
2018-12-06T05:39:56.016Z,18.63
2018-12-06T05:42:24.941Z,17.53
2018-12-06T05:44:53.873Z,16.27
2018-12-06T05:47:22.869Z,18.60
2018-12-06T05:49:51.773Z,15.20
2018-12-06T05:52:20.683Z,15.10
2018-12-06T05:54:49.595Z,12.23
2018-12-06T05:57:18.493Z,12.60
2018-12-06T05:59:47.489Z,12.80
2018-12-06T06:02:16.401Z,14.50
2018-12-06T06:04:45.309Z,14.73
2018-12-06T06:07:14.217Z,13.37
2018-12-06T06:09:43.121Z,12.10
2018-12-06T06:12:12.024Z,13.17
2018-12-06T06:14:40.913Z,13.50
2018-12-06T06:17:09.827Z,15.67
2018-12-06T06:19:38.742Z,15.87
2018-12-06T06:22:07.722Z,16.10
2018-12-06T06:24:36.622Z,15.97
2018-12-06T06:27:05.604Z,18.00
2018-12-06T06:29:34.552Z,17.23
2018-12-06T06:32:03.470Z,18.27
2018-12-06T06:34:32.373Z,16.93
2018-12-06T06:37:01.278Z,19.00
2018-12-06T06:39:30.198Z,22.13
2018-12-06T06:41:59.096Z,21.50
2018-12-06T06:44:28.000Z,21.40
2018-12-06T06:46:56.894Z,25.03
2018-12-06T06:49:25.840Z,23.50
2018-12-06T06:51:54.754Z,21.77
2018-12-06T06:54:23.673Z,17.10
2018-12-06T06:56:52.567Z,17.40
2018-12-06T06:59:26.061Z,18.23
2018-12-06T07:01:52.448Z,18.07
2018-12-06T07:04:21.360Z,18.27
2018-12-06T07:06:50.314Z,17.27
2018-12-06T07:09:19.222Z,17.33
2018-12-06T07:11:48.154Z,16.80
2018-12-06T07:14:17.102Z,17.60
2018-12-06T07:16:46.039Z,18.50
2018-12-06T07:19:14.941Z,17.57
2018-12-06T07:21:43.869Z,17.00
2018-12-06T07:24:12.768Z,18.10
2018-12-06T07:26:41.756Z,15.10
2018-12-06T07:29:10.799Z,16.70
2018-12-06T07:31:39.701Z,15.20
2018-12-06T07:34:08.589Z,15.40
2018-12-06T07:36:37.484Z,14.50
2018-12-06T07:39:08.406Z,14.47
2018-12-06T07:41:37.309Z,14.03
2018-12-06T07:44:20.839Z,12.63
2018-12-06T07:46:49.763Z,11.00
2018-12-06T07:49:18.666Z,10.53
2018-12-06T07:51:47.583Z,11.77
2018-12-06T07:54:16.474Z,9.87
2018-12-06T07:56:45.391Z,12.97
2018-12-06T07:59:14.315Z,13.17
2018-12-06T08:01:43.510Z,14.77
2018-12-06T08:04:12.396Z,19.67
2018-12-06T08:06:41.313Z,19.30
2018-12-06T08:09:10.676Z,18.90
2018-12-06T08:11:39.570Z,19.47
2018-12-06T08:14:08.507Z,16.90
2018-12-06T08:16:37.496Z,15.57
2018-12-06T08:19:06.397Z,15.93
2018-12-06T08:21:35.310Z,17.70
2018-12-06T08:24:04.262Z,17.30
2018-12-06T08:26:33.182Z,15.90
2018-12-06T08:29:02.099Z,16.70
2018-12-06T08:31:31.993Z,15.77
2018-12-06T08:34:06.129Z,15.80
2018-12-06T08:36:31.900Z,15.10
2018-12-06T08:39:00.831Z,14.57
2018-12-06T08:41:29.754Z,15.37
2018-12-06T08:43:58.694Z,15.57
2018-12-06T08:46:27.662Z,15.87
2018-12-06T08:49:02.832Z,13.60
2018-12-06T08:51:27.621Z,14.60
2018-12-06T08:53:56.513Z,13.40
2018-12-06T08:56:25.432Z,13.73
2018-12-06T08:58:54.351Z,11.90
2018-12-06T09:01:23.259Z,11.70
2018-12-06T09:03:52.161Z,9.80
2018-12-06T09:06:21.434Z,10.90
2018-12-06T09:08:50.425Z,14.90
2018-12-06T09:11:19.790Z,12.23
2018-12-06T09:13:48.788Z,15.57
2018-12-06T09:16:18.219Z,15.80
2018-12-06T09:18:47.587Z,15.00
2018-12-06T09:21:16.541Z,14.23
2018-12-06T09:23:45.686Z,36.40
2018-12-06T09:26:20.881Z,13.33
2018-12-06T09:28:49.782Z,14.73
2018-12-06T09:31:19.268Z,53.27
2018-12-06T09:34:06.277Z,23.20
2018-12-06T09:36:35.940Z,13.20
2018-12-06T09:39:07.100Z,15.37
2018-12-06T09:41:37.924Z,12.17
2018-12-06T09:44:06.883Z,16.30
2018-12-06T09:46:35.804Z,17.50
2018-12-06T09:49:06.966Z,14.87
2018-12-06T09:51:35.895Z,14.17
2018-12-06T09:54:04.846Z,14.23
2018-12-06T09:56:33.742Z,18.60
2018-12-06T09:59:02.680Z,14.90
2018-12-06T10:01:31.619Z,15.10
2018-12-06T10:04:00.528Z,16.87
2018-12-06T10:06:29.451Z,13.60
2018-12-06T10:08:58.362Z,10.87
2018-12-06T10:11:27.894Z,11.87
2018-12-06T10:13:56.803Z,12.47
2018-12-06T10:16:25.710Z,14.70
2018-12-06T10:18:54.657Z,16.53
2018-12-06T10:21:23.660Z,12.87
2018-12-06T10:23:54.702Z,11.40
2018-12-06T10:26:23.615Z,8.50
2018-12-06T10:28:52.516Z,5.60
2018-12-06T10:31:21.417Z,6.00
2018-12-06T10:33:50.375Z,7.40
2018-12-06T10:36:19.283Z,8.83
2018-12-06T10:38:48.165Z,8.50
2018-12-06T10:41:17.071Z,8.27
2018-12-06T10:43:45.963Z,7.57
2018-12-06T10:46:14.872Z,6.80
2018-12-06T10:48:43.765Z,7.33
2018-12-06T10:51:23.597Z,7.53
2018-12-06T10:53:52.506Z,7.53
2018-12-06T10:56:21.437Z,9.60
2018-12-06T10:58:50.350Z,11.03
2018-12-06T11:01:21.668Z,9.00
2018-12-06T11:03:59.517Z,7.90
2018-12-06T11:06:28.480Z,8.43
2018-12-06T11:08:57.386Z,7.00
2018-12-06T11:11:26.547Z,6.13
2018-12-06T11:13:55.568Z,6.17
2018-12-06T11:16:24.505Z,5.07
2018-12-06T11:18:53.401Z,5.17
2018-12-06T11:21:22.323Z,5.40
2018-12-06T11:23:51.243Z,5.03
2018-12-06T11:26:20.176Z,10.60
2018-12-06T11:28:49.093Z,8.50
2018-12-06T11:31:17.998Z,20.77
2018-12-06T11:33:46.989Z,16.47
2018-12-06T11:36:15.904Z,15.23
2018-12-06T11:38:44.792Z,11.60
2018-12-06T11:41:13.714Z,12.90
2018-12-06T11:43:42.630Z,15.70
2018-12-06T11:46:11.541Z,8.27
2018-12-06T11:48:40.455Z,12.00
2018-12-06T11:51:09.382Z,10.57
2018-12-06T11:53:38.294Z,9.70
2018-12-06T11:56:07.211Z,13.07
2018-12-06T11:58:36.105Z,13.87
2018-12-06T12:01:05.060Z,11.90
2018-12-06T12:03:34.069Z,12.70
2018-12-06T12:06:03.027Z,9.90
2018-12-06T12:08:31.924Z,7.93
2018-12-06T12:11:00.829Z,7.60
2018-12-06T12:13:29.712Z,6.40
2018-12-06T12:15:58.639Z,7.70
2018-12-06T12:18:27.553Z,7.47
2018-12-06T12:20:56.489Z,5.60
2018-12-06T12:23:25.421Z,5.90
2018-12-06T12:25:54.330Z,5.10
2018-12-06T12:28:23.225Z,5.60
2018-12-06T12:30:52.116Z,5.27
2018-12-06T12:33:21.010Z,5.50
2018-12-06T12:35:49.926Z,5.63
2018-12-06T12:38:18.842Z,5.00
2018-12-06T12:40:47.766Z,4.87
2018-12-06T12:43:16.673Z,4.70
2018-12-06T12:45:45.594Z,5.20
2018-12-06T12:48:14.509Z,7.83
2018-12-06T12:50:43.422Z,8.97
2018-12-06T12:53:12.323Z,9.57
2018-12-06T12:55:41.238Z,8.43
2018-12-06T12:58:10.145Z,7.47
2018-12-06T13:00:39.071Z,6.10
2018-12-06T13:03:07.974Z,6.70
2018-12-06T13:05:36.878Z,5.73
2018-12-06T13:08:05.785Z,5.50
2018-12-06T13:10:34.706Z,5.73
2018-12-06T13:13:03.610Z,5.23
2018-12-06T13:15:32.520Z,4.83
2018-12-06T13:18:01.425Z,5.30
2018-12-06T13:20:30.334Z,6.10
2018-12-06T13:22:59.234Z,5.87
2018-12-06T13:25:28.128Z,5.67
2018-12-06T13:27:57.034Z,5.20
2018-12-06T13:30:25.940Z,7.00
2018-12-06T13:32:54.858Z,9.00
2018-12-06T13:35:23.783Z,7.40
2018-12-06T13:37:52.698Z,6.20
2018-12-06T13:40:21.625Z,6.73
2018-12-06T13:42:50.538Z,7.87
2018-12-06T13:45:19.445Z,27.97
2018-12-06T13:47:48.349Z,21.13
2018-12-06T13:50:17.280Z,14.03
2018-12-06T13:52:46.181Z,7.90
2018-12-06T13:55:15.101Z,6.20
2018-12-06T13:57:44.022Z,4.43
2018-12-06T14:00:12.940Z,6.00
2018-12-06T14:02:41.844Z,5.90
2018-12-06T14:05:10.756Z,5.87
2018-12-06T14:07:39.669Z,6.47
2018-12-06T14:10:08.579Z,6.80
2018-12-06T14:12:38.014Z,7.17
2018-12-06T14:15:06.938Z,7.90
2018-12-06T14:17:35.844Z,7.20
2018-12-06T14:20:05.231Z,9.40
2018-12-06T14:22:34.140Z,12.30
2018-12-06T14:25:03.062Z,15.63
2018-12-06T14:27:31.980Z,19.50
2018-12-06T14:30:00.891Z,19.60
2018-12-06T14:32:29.814Z,29.60
2018-12-06T14:34:58.717Z,22.90
2018-12-06T14:37:27.623Z,18.13
2018-12-06T14:39:56.534Z,12.03
2018-12-06T14:42:25.433Z,8.40
2018-12-06T14:44:54.339Z,10.07
2018-12-06T14:47:23.250Z,7.37
2018-12-06T14:49:52.154Z,7.60
2018-12-06T14:52:21.062Z,7.87
2018-12-06T14:54:49.953Z,7.53
2018-12-06T14:57:18.882Z,7.03
2018-12-06T14:59:47.794Z,7.10
2018-12-06T15:02:16.712Z,7.83
2018-12-06T15:04:45.603Z,6.50
2018-12-06T15:07:14.517Z,9.60
2018-12-06T15:09:43.414Z,10.50
2018-12-06T15:12:12.325Z,10.47
2018-12-06T15:14:41.213Z,8.10
2018-12-06T15:17:10.138Z,15.53
2018-12-06T15:19:39.038Z,21.87
2018-12-06T15:22:07.970Z,15.70
2018-12-06T15:24:36.912Z,13.87
2018-12-06T15:27:05.809Z,14.23
2018-12-06T15:29:34.750Z,13.53
2018-12-06T15:32:03.675Z,13.20
2018-12-06T15:34:32.565Z,16.17
2018-12-06T15:37:01.512Z,14.67
2018-12-06T15:39:30.419Z,15.93
2018-12-06T15:41:59.340Z,18.57
2018-12-06T15:44:28.241Z,18.73
2018-12-06T15:46:57.144Z,21.73
2018-12-06T15:49:26.037Z,26.23
2018-12-06T15:51:54.951Z,28.77
2018-12-06T15:54:23.853Z,24.80
2018-12-06T15:56:52.805Z,17.60
2018-12-06T15:59:21.709Z,17.63
2018-12-06T16:01:50.727Z,18.50
2018-12-06T16:04:19.621Z,18.63
2018-12-06T16:06:48.542Z,18.47
2018-12-06T16:09:17.506Z,20.30
2018-12-06T16:11:46.401Z,21.77
2018-12-06T16:14:15.307Z,25.10
2018-12-06T16:16:44.225Z,20.40
2018-12-06T16:19:13.141Z,18.10
2018-12-06T16:21:42.072Z,20.00
2018-12-06T16:24:10.975Z,20.90
2018-12-06T16:26:39.896Z,16.30
2018-12-06T16:29:08.791Z,15.73
2018-12-06T16:31:37.697Z,13.27
2018-12-06T16:34:06.628Z,12.30
2018-12-06T16:36:35.556Z,11.30
2018-12-06T16:39:05.884Z,12.97
2018-12-06T16:41:34.791Z,13.53
2018-12-06T16:44:04.173Z,12.47
2018-12-06T16:46:33.121Z,11.70
2018-12-06T16:49:09.854Z,12.17
2018-12-06T16:51:33.339Z,12.60
2018-12-06T16:54:02.319Z,13.30
2018-12-06T16:56:31.228Z,12.17
2018-12-06T16:59:00.116Z,14.23
2018-12-06T17:02:31.981Z,11.77
2018-12-06T17:05:01.458Z,11.30
2018-12-06T17:07:30.370Z,10.40
2018-12-06T17:09:59.272Z,9.50
2018-12-06T17:12:29.299Z,10.13
2018-12-06T17:14:58.202Z,11.97
2018-12-06T17:17:27.114Z,20.40
2018-12-06T17:19:56.055Z,25.40
2018-12-06T17:22:24.957Z,26.90
2018-12-06T17:24:53.869Z,27.70
2018-12-06T17:27:22.790Z,22.07
2018-12-06T17:29:51.878Z,25.87
2018-12-06T17:32:20.996Z,31.73
2018-12-06T17:34:49.909Z,42.63
2018-12-06T17:37:18.858Z,40.07
2018-12-06T17:39:47.800Z,37.00
2018-12-06T17:42:16.768Z,37.73
2018-12-06T17:44:45.700Z,38.20
2018-12-06T17:47:14.665Z,39.17
2018-12-06T17:49:43.585Z,42.93
2018-12-06T17:52:12.501Z,37.80
2018-12-06T17:54:41.406Z,39.43
2018-12-06T17:57:10.346Z,40.87
2018-12-06T17:59:39.280Z,47.40
2018-12-06T18:02:08.242Z,48.07
2018-12-06T18:04:37.195Z,47.80
2018-12-06T18:07:06.094Z,45.87
2018-12-06T18:09:34.997Z,46.70
2018-12-06T18:12:03.929Z,46.00
2018-12-06T18:14:32.878Z,50.43
2018-12-06T18:17:01.795Z,50.97
2018-12-06T18:19:30.735Z,49.60
2018-12-06T18:22:01.293Z,45.43
2018-12-06T18:24:30.586Z,47.73
2018-12-06T18:26:59.587Z,46.90
2018-12-06T18:29:28.574Z,42.97
2018-12-06T18:31:57.473Z,44.00
2018-12-06T18:34:26.426Z,50.30
2018-12-06T18:36:55.328Z,42.57
2018-12-06T18:39:24.238Z,42.83
2018-12-06T18:41:53.186Z,41.93
2018-12-06T18:44:22.105Z,41.33
2018-12-06T18:46:51.069Z,42.67
2018-12-06T18:49:20.056Z,44.17
2018-12-06T18:51:48.989Z,47.67
2018-12-06T18:54:17.885Z,52.63
2018-12-06T18:56:46.797Z,56.70
2018-12-06T18:59:15.708Z,55.27
2018-12-06T19:01:44.621Z,56.70
2018-12-06T19:04:13.627Z,55.10
2018-12-06T19:06:44.895Z,59.70
2018-12-06T19:09:14.038Z,58.27
2018-12-06T19:12:14.385Z,46.77
2018-12-06T19:14:43.282Z,42.43
2018-12-06T19:17:12.198Z,42.47
2018-12-06T19:19:41.135Z,43.30
2018-12-06T19:22:10.067Z,40.83
2018-12-06T19:24:38.987Z,42.40
2018-12-06T19:27:07.942Z,44.13
2018-12-06T19:29:36.883Z,47.70
2018-12-06T19:32:05.889Z,54.20
2018-12-06T19:34:35.090Z,53.00
2018-12-06T19:37:04.006Z,51.37
2018-12-06T19:39:32.944Z,50.47
2018-12-06T19:42:01.859Z,54.20
2018-12-06T19:44:30.835Z,52.87
2018-12-06T19:46:59.815Z,48.50
2018-12-06T19:49:28.819Z,51.00
2018-12-06T19:51:57.733Z,48.80
2018-12-06T19:54:26.655Z,47.50
2018-12-06T19:56:55.593Z,45.13
2018-12-06T19:59:24.518Z,75.23
2018-12-06T20:01:53.436Z,132.37
2018-12-06T20:04:22.388Z,111.93
2018-12-06T20:06:51.296Z,104.80
2018-12-06T20:09:20.221Z,62.80
2018-12-06T20:11:49.224Z,72.63
2018-12-06T20:14:18.154Z,75.90
2018-12-06T20:16:47.174Z,75.27
2018-12-06T20:19:16.107Z,78.20
2018-12-06T20:21:45.053Z,67.90
2018-12-06T20:24:13.986Z,62.00
2018-12-06T20:26:42.990Z,60.60
2018-12-06T20:29:11.953Z,61.57
2018-12-06T20:31:40.898Z,58.60
2018-12-06T20:34:09.847Z,61.13
2018-12-06T20:36:38.815Z,59.23
2018-12-06T20:39:08.377Z,61.60
2018-12-06T20:41:37.381Z,72.67
2018-12-06T20:44:06.349Z,67.27
2018-12-06T20:46:35.260Z,70.70
2018-12-06T20:49:04.183Z,77.60
2018-12-06T20:51:33.480Z,73.37
2018-12-06T20:54:02.554Z,74.27
2018-12-06T20:56:31.473Z,70.80
2018-12-06T20:59:00.382Z,73.23
2018-12-06T21:01:29.292Z,72.90
2018-12-06T21:03:58.312Z,68.07
2018-12-06T21:06:27.258Z,76.57
2018-12-06T21:08:56.193Z,77.67
2018-12-06T21:11:25.109Z,80.50
2018-12-06T21:13:54.025Z,89.77
2018-12-06T21:16:22.934Z,94.60
2018-12-06T21:18:51.852Z,91.77
2018-12-06T21:21:20.750Z,90.07
2018-12-06T21:23:49.668Z,91.17
2018-12-06T21:26:18.573Z,90.67
2018-12-06T21:28:47.489Z,90.33
2018-12-06T21:31:16.394Z,94.30
2018-12-06T21:33:45.292Z,98.40
2018-12-06T21:36:14.204Z,100.93
2018-12-06T21:38:43.134Z,89.37
2018-12-06T21:41:12.073Z,87.77
2018-12-06T21:43:40.992Z,79.07
2018-12-06T21:46:09.945Z,77.30
2018-12-06T21:48:38.887Z,78.27
2018-12-06T21:51:07.800Z,64.20
2018-12-06T21:53:36.714Z,63.20
2018-12-06T21:56:05.645Z,59.00
2018-12-06T21:58:34.578Z,57.00
2018-12-06T22:01:03.497Z,52.07
2018-12-06T22:03:32.433Z,38.17
2018-12-06T22:06:01.361Z,30.47
2018-12-06T22:08:30.290Z,20.63
2018-12-06T22:10:59.202Z,18.50
2018-12-06T22:13:28.101Z,18.37
2018-12-06T22:15:56.996Z,21.47
2018-12-06T22:18:25.962Z,17.33
2018-12-06T22:20:56.361Z,16.30
2018-12-06T22:23:25.485Z,17.70
2018-12-06T22:25:54.396Z,18.17
2018-12-06T22:28:23.377Z,18.27
2018-12-06T22:30:52.281Z,18.87
2018-12-06T22:33:21.248Z,19.00
2018-12-06T22:35:50.154Z,20.70
2018-12-06T22:38:19.045Z,21.33
2018-12-06T22:40:47.969Z,21.87
2018-12-06T22:43:16.874Z,20.70
2018-12-06T22:46:01.213Z,24.73
2018-12-06T22:48:30.187Z,23.57
2018-12-06T22:50:59.137Z,22.20
2018-12-06T22:53:28.043Z,21.70
2018-12-06T22:55:57.004Z,20.13
2018-12-06T22:58:25.910Z,23.30
2018-12-06T23:00:56.947Z,29.40
2018-12-06T23:03:26.933Z,30.03
2018-12-06T23:05:55.894Z,28.60
2018-12-06T23:08:24.803Z,33.27
2018-12-06T23:10:53.730Z,49.47
2018-12-06T23:13:22.642Z,55.40
2018-12-06T23:15:51.551Z,40.43
2018-12-06T23:18:20.481Z,42.80
2018-12-06T23:20:49.400Z,39.77
2018-12-06T23:23:18.497Z,38.93
2018-12-06T23:25:47.396Z,38.73
2018-12-06T23:28:16.317Z,41.13
2018-12-06T23:30:45.223Z,42.67
2018-12-06T23:33:14.137Z,41.30
2018-12-06T23:35:43.058Z,37.30
2018-12-06T23:38:11.979Z,36.07
2018-12-06T23:40:40.909Z,37.87
2018-12-06T23:43:09.962Z,39.90
2018-12-06T23:45:38.875Z,42.67
2018-12-06T23:48:07.792Z,43.13
2018-12-06T23:50:36.716Z,42.03
2018-12-06T23:53:05.630Z,43.63
2018-12-06T23:55:34.529Z,41.17
2018-12-06T23:58:03.434Z,36.83
